Time;durP1;ratioP1;P1;durP2;ratioP2;P2;SDS_P1;SDS_P2;PMS_P1;PMS_P2;Temp;Humidity;BMP_temperature;BMP_pressure;BME280_temperature;BME280_humidity;BME280_pressure;Samples;Min_cycle;Max_cycle;Signal;HPM_P1;HPM_P2
2022/07/25 00:01:41;;;;;;;;;;;20.00;96.00;;;;;;5006370;28;20275;-81
2022/07/25 00:04:07;;;;;;;;;;;19.90;96.20;;;;;;5009850;28;19981;-83
2022/07/25 00:06:34;;;;;;;;;;;19.90;96.50;;;;;;5007879;28;20294;-76
2022/07/25 00:09:00;;;;;;;;;;;19.80;96.80;;;;;;5011050;28;19917;-76
2022/07/25 00:11:26;;;;;;;;;;;19.70;96.80;;;;;;4993944;28;19909;-75
2022/07/25 00:13:52;;;;;;;;;;;19.60;97.20;;;;;;5006412;28;19913;-74
2022/07/25 00:16:18;;;;;;;;;;;19.60;98.10;;;;;;5008390;28;20468;-75
2022/07/25 00:18:44;;;;;;;;;;;19.70;97.60;;;;;;5013525;28;19909;-75
2022/07/25 00:21:10;;;;;;;;;;;19.80;97.40;;;;;;5012247;28;20274;-75
2022/07/25 00:23:36;;;;;;;;;;;19.80;97.50;;;;;;5012610;28;19909;-78
2022/07/25 00:26:02;;;;;;;;;;;19.70;97.60;;;;;;5014853;28;19909;-75
2022/07/25 00:28:28;;;;;;;;;;;19.80;97.50;;;;;;5008784;28;19917;-75
2022/07/25 00:30:54;;;;;;;;;;;19.70;97.60;;;;;;5011073;28;19917;-75
2022/07/25 00:33:20;;;;;;;;;;;19.60;98.10;;;;;;4995703;28;20341;-75
2022/07/25 00:35:46;;;;;;;;;;;19.60;98.40;;;;;;5011212;28;19913;-75
2022/07/25 00:38:12;;;;;;;;;;;19.60;98.40;;;;;;5008225;28;20371;-75
2022/07/25 00:40:38;;;;;;;;;;;19.60;98.90;;;;;;5014724;28;19909;-77
2022/07/25 00:43:04;;;;;;;;;;;19.50;99.00;;;;;;5007731;28;20359;-78
2022/07/25 00:45:30;;;;;;;;;;;19.60;98.90;;;;;;5011858;28;19931;-76
2022/07/25 00:47:56;;;;;;;;;;;19.50;99.00;;;;;;5007523;28;19928;-76
2022/07/25 00:50:23;;;;;;;;;;;19.60;98.80;;;;;;4993541;28;19917;-77
2022/07/25 00:52:49;;;;;;;;;;;19.50;98.70;;;;;;5013190;28;19917;-76
2022/07/25 00:55:15;;;;;;;;;;;19.40;98.80;;;;;;5008681;28;19917;-76
2022/07/25 00:57:41;;;;;;;;;;;19.30;99.40;;;;;;5007724;28;19928;-76
2022/07/25 01:00:08;;;;;;;;;;;19.30;99.70;;;;;;5005192;28;19913;-76
2022/07/25 01:02:34;;;;;;;;;;;19.40;99.40;;;;;;5007501;28;20278;-77
2022/07/25 01:05:03;;;;;;;;;;;19.30;99.50;;;;;;5009752;28;20008;-76
2022/07/25 01:07:30;;;;;;;;;;;19.10;99.90;;;;;;5012357;28;19917;-76
2022/07/25 01:09:56;;;;;;;;;;;18.90;99.90;;;;;;5013483;28;20274;-76
2022/07/25 01:12:22;;;;;;;;;;;18.90;99.90;;;;;;5009228;28;19916;-76
2022/07/25 01:14:48;;;;;;;;;;;18.80;99.90;;;;;;5005228;28;19910;-76
2022/07/25 01:17:15;;;;;;;;;;;18.90;99.90;;;;;;5007854;28;19916;-76
2022/07/25 01:19:41;;;;;;;;;;;18.90;99.90;;;;;;5010136;28;20243;-76
2022/07/25 01:22:07;;;;;;;;;;;18.90;99.90;;;;;;5005637;28;19917;-76
2022/07/25 01:24:34;;;;;;;;;;;18.80;99.90;;;;;;5010470;28;19910;-76
2022/07/25 01:27:01;;;;;;;;;;;18.80;99.90;;;;;;5009705;28;19917;-76
2022/07/25 01:29:27;;;;;;;;;;;18.70;99.90;;;;;;5011300;28;19916;-77
2022/07/25 01:31:53;;;;;;;;;;;18.60;99.90;;;;;;5007222;28;19925;-77
2022/07/25 01:34:19;;;;;;;;;;;18.60;99.90;;;;;;5011378;28;19999;-76
2022/07/25 01:36:45;;;;;;;;;;;18.70;99.90;;;;;;5007016;28;19917;-76
2022/07/25 01:39:11;;;;;;;;;;;18.70;99.90;;;;;;5012760;28;19964;-76
2022/07/25 01:41:37;;;;;;;;;;;18.80;99.90;;;;;;5009245;28;19916;-77
2022/07/25 01:44:03;;;;;;;;;;;18.90;99.90;;;;;;5004438;28;19910;-78
2022/07/25 01:46:29;;;;;;;;;;;18.90;99.90;;;;;;5015376;28;19909;-76
2022/07/25 01:48:55;;;;;;;;;;;18.90;99.90;;;;;;5009082;28;19917;-76
2022/07/25 01:51:21;;;;;;;;;;;18.90;99.90;;;;;;5012382;28;20309;-78
2022/07/25 01:53:47;;;;;;;;;;;19.00;99.90;;;;;;5005880;28;19952;-76
2022/07/25 01:56:13;;;;;;;;;;;19.00;99.90;;;;;;5012371;28;19909;-77
2022/07/25 01:58:39;;;;;;;;;;;19.00;99.90;;;;;;5010797;28;19918;-76
2022/07/25 02:01:05;;;;;;;;;;;18.90;99.90;;;;;;5004958;28;19967;-87
2022/07/25 02:03:31;;;;;;;;;;;18.80;99.90;;;;;;5009832;28;20289;-83
2022/07/25 02:05:59;;;;;;;;;;;18.70;99.90;;;;;;5008457;28;20274;-76
2022/07/25 02:08:25;;;;;;;;;;;18.70;99.90;;;;;;5008769;28;19918;-76
2022/07/25 02:10:51;;;;;;;;;;;18.70;99.90;;;;;;4995411;28;19913;-76
2022/07/25 02:13:18;;;;;;;;;;;18.70;99.90;;;;;;5002372;28;20413;-76
2022/07/25 02:15:44;;;;;;;;;;;18.70;99.90;;;;;;5005272;28;19910;-76
2022/07/25 02:18:10;;;;;;;;;;;18.50;99.90;;;;;;5012123;28;19920;-76
2022/07/25 02:20:36;;;;;;;;;;;18.40;99.90;;;;;;5011978;28;19909;-76
2022/07/25 02:23:02;;;;;;;;;;;18.30;99.90;;;;;;5007855;28;19985;-76
2022/07/25 02:25:28;;;;;;;;;;;18.30;99.90;;;;;;5008859;28;20278;-80
2022/07/25 02:27:54;;;;;;;;;;;18.30;99.90;;;;;;4998302;28;19949;-76
2022/07/25 02:30:20;;;;;;;;;;;18.20;99.90;;;;;;5011032;28;20402;-76
2022/07/25 02:32:46;;;;;;;;;;;18.00;99.90;;;;;;5006506;28;20366;-76
2022/07/25 02:35:12;;;;;;;;;;;17.90;99.90;;;;;;5007505;28;19917;-76
2022/07/25 02:37:39;;;;;;;;;;;17.90;99.90;;;;;;5006451;28;19909;-76
2022/07/25 02:40:05;;;;;;;;;;;17.90;99.90;;;;;;5006139;28;19909;-77
2022/07/25 02:42:31;;;;;;;;;;;17.90;99.90;;;;;;5004722;28;19909;-76
2022/07/25 02:44:57;;;;;;;;;;;17.90;99.90;;;;;;5010031;28;19913;-76
2022/07/25 02:47:23;;;;;;;;;;;17.90;99.90;;;;;;5006012;28;19917;-76
2022/07/25 02:49:49;;;;;;;;;;;17.80;99.90;;;;;;5006371;28;20259;-76
2022/07/25 02:52:15;;;;;;;;;;;17.90;99.90;;;;;;5006097;28;19910;-76
2022/07/25 02:54:41;;;;;;;;;;;18.00;99.90;;;;;;5011538;28;19932;-76
2022/07/25 02:57:07;;;;;;;;;;;18.00;99.90;;;;;;5010336;28;19924;-77
2022/07/25 02:59:33;;;;;;;;;;;18.10;99.90;;;;;;5009924;28;19913;-76
2022/07/25 03:01:59;;;;;;;;;;;18.10;99.90;;;;;;5010011;28;20472;-77
2022/07/25 03:04:25;;;;;;;;;;;18.10;99.90;;;;;;5004591;28;20351;-76
2022/07/25 03:06:51;;;;;;;;;;;18.10;99.90;;;;;;5008990;28;19910;-76
2022/07/25 03:09:17;;;;;;;;;;;18.10;99.90;;;;;;5010225;28;19920;-76
2022/07/25 03:11:43;;;;;;;;;;;18.10;99.90;;;;;;5006371;28;19921;-77
2022/07/25 03:14:09;;;;;;;;;;;18.00;99.90;;;;;;5011093;28;19909;-79
2022/07/25 03:16:35;;;;;;;;;;;17.90;99.90;;;;;;5003731;28;20351;-76
2022/07/25 03:19:01;;;;;;;;;;;17.90;99.90;;;;;;5002277;28;19919;-76
2022/07/25 03:21:27;;;;;;;;;;;17.80;99.90;;;;;;5010554;28;19985;-77
2022/07/25 03:23:53;;;;;;;;;;;17.50;99.90;;;;;;5011364;28;20002;-76
2022/07/25 03:26:19;;;;;;;;;;;17.40;99.90;;;;;;5003422;28;19913;-76
2022/07/25 03:28:45;;;;;;;;;;;17.30;99.90;;;;;;5006996;28;19918;-76
2022/07/25 03:31:11;;;;;;;;;;;17.20;99.90;;;;;;5010781;28;19968;-83
2022/07/25 03:33:37;;;;;;;;;;;17.10;99.90;;;;;;5007740;28;20104;-76
2022/07/25 03:36:03;;;;;;;;;;;17.10;99.90;;;;;;5006978;28;19960;-76
2022/07/25 03:38:29;;;;;;;;;;;17.10;99.90;;;;;;5004227;28;19917;-76
2022/07/25 03:40:55;;;;;;;;;;;17.10;99.90;;;;;;5005327;28;19985;-76
2022/07/25 03:43:21;;;;;;;;;;;17.00;99.90;;;;;;5003957;28;19913;-76
2022/07/25 03:45:47;;;;;;;;;;;17.00;99.90;;;;;;5005430;28;19919;-76
2022/07/25 03:48:13;;;;;;;;;;;17.00;99.90;;;;;;5009798;28;20337;-76
2022/07/25 03:50:39;;;;;;;;;;;17.10;99.90;;;;;;5010029;28;19917;-76
2022/07/25 03:53:05;;;;;;;;;;;17.10;99.90;;;;;;5013246;28;19913;-75
2022/07/25 03:55:31;;;;;;;;;;;17.10;99.90;;;;;;5011805;28;19913;-75
2022/07/25 03:57:57;;;;;;;;;;;17.20;99.90;;;;;;5004563;28;20429;-76
2022/07/25 04:00:23;;;;;;;;;;;17.10;99.90;;;;;;5014360;28;19909;-76
2022/07/25 04:02:49;;;;;;;;;;;17.10;99.90;;;;;;5009590;28;20456;-76
2022/07/25 04:05:15;;;;;;;;;;;17.10;99.90;;;;;;5012517;28;19949;-76
2022/07/25 04:07:41;;;;;;;;;;;17.10;99.90;;;;;;5011994;28;19917;-76
2022/07/25 04:10:08;;;;;;;;;;;17.20;99.90;;;;;;5014918;28;19966;-76
2022/07/25 04:12:34;;;;;;;;;;;17.30;99.90;;;;;;5010651;28;20381;-76
2022/07/25 04:15:00;;;;;;;;;;;17.30;99.90;;;;;;5013424;28;19909;-77
2022/07/25 04:17:26;;;;;;;;;;;17.40;99.90;;;;;;5010493;28;20417;-76
2022/07/25 04:19:52;;;;;;;;;;;17.50;99.90;;;;;;5011893;28;19917;-76
2022/07/25 04:22:18;;;;;;;;;;;17.50;99.90;;;;;;5007853;28;19909;-76
2022/07/25 04:24:44;;;;;;;;;;;17.40;99.90;;;;;;5014042;28;19913;-75
2022/07/25 04:27:10;;;;;;;;;;;17.50;99.90;;;;;;5015891;28;19909;-76
2022/07/25 04:29:36;;;;;;;;;;;17.60;99.90;;;;;;5009878;28;19914;-75
2022/07/25 04:32:02;;;;;;;;;;;17.60;99.90;;;;;;5005391;28;19929;-76
2022/07/25 04:34:28;;;;;;;;;;;17.60;99.90;;;;;;5011228;28;19920;-76
2022/07/25 04:36:54;;;;;;;;;;;17.60;99.90;;;;;;5014845;28;19917;-76
2022/07/25 04:39:20;;;;;;;;;;;17.70;99.90;;;;;;5016268;28;19913;-80
2022/07/25 04:41:47;;;;;;;;;;;18.10;99.90;;;;;;5018074;28;19913;-76
2022/07/25 04:44:13;;;;;;;;;;;19.20;99.90;;;;;;5014410;28;19910;-79
2022/07/25 04:46:39;;;;;;;;;;;20.80;99.90;;;;;;5011468;28;19916;-76
2022/07/25 04:49:05;;;;;;;;;;;22.20;97.90;;;;;;5011801;28;19918;-76
2022/07/25 04:51:31;;;;;;;;;;;22.90;94.20;;;;;;5012557;28;19960;-80
2022/07/25 04:53:57;;;;;;;;;;;23.40;93.40;;;;;;5013891;28;19913;-76
2022/07/25 04:56:23;;;;;;;;;;;24.00;90.80;;;;;;5021377;28;19956;-76
2022/07/25 04:58:49;;;;;;;;;;;24.70;87.80;;;;;;5023150;28;19951;-77
2022/07/25 05:01:15;;;;;;;;;;;25.00;83.30;;;;;;5015619;28;20016;-76
2022/07/25 05:03:42;;;;;;;;;;;24.70;82.90;;;;;;5010380;28;20354;-76
2022/07/25 05:06:08;;;;;;;;;;;24.40;83.10;;;;;;5011629;28;19910;-77
2022/07/25 05:08:35;;;;;;;;;;;24.40;84.60;;;;;;5009979;28;19924;-76
2022/07/25 05:11:00;;;;;;;;;;;25.70;82.90;;;;;;5012062;28;19945;-76
2022/07/25 05:13:26;;;;;;;;;;;27.10;74.70;;;;;;5007702;28;19940;-76
2022/07/25 05:15:53;;;;;;;;;;;28.00;71.70;;;;;;5013097;28;19913;-77
2022/07/25 05:18:19;;;;;;;;;;;28.70;67.80;;;;;;5009369;28;19913;-76
2022/07/25 05:20:45;;;;;;;;;;;29.40;64.60;;;;;;5013863;28;20255;-77
2022/07/25 05:23:11;;;;;;;;;;;29.20;60.40;;;;;;5012770;28;19916;-78
2022/07/25 05:25:37;;;;;;;;;;;29.30;60.70;;;;;;5012070;28;19935;-77
2022/07/25 05:28:03;;;;;;;;;;;28.60;60.20;;;;;;5011483;28;19917;-74
2022/07/25 05:30:29;;;;;;;;;;;28.70;60.30;;;;;;5007411;28;20154;-75
2022/07/25 05:32:55;;;;;;;;;;;28.00;61.20;;;;;;5005887;28;20010;-76
2022/07/25 05:35:21;;;;;;;;;;;28.20;64.40;;;;;;5011750;28;19916;-75
2022/07/25 05:37:47;;;;;;;;;;;28.60;62.20;;;;;;5012888;28;19913;-75
2022/07/25 05:40:13;;;;;;;;;;;29.50;59.40;;;;;;5008756;28;19924;-76
2022/07/25 05:42:39;;;;;;;;;;;30.10;58.40;;;;;;5007315;28;20362;-75
2022/07/25 05:45:05;;;;;;;;;;;29.90;57.60;;;;;;5012686;28;19916;-75
2022/07/25 05:47:31;;;;;;;;;;;30.00;57.90;;;;;;5013328;28;19917;-75
2022/07/25 05:49:58;;;;;;;;;;;30.60;56.90;;;;;;5010105;28;19917;-75
2022/07/25 05:52:24;;;;;;;;;;;30.40;56.30;;;;;;5005979;28;19916;-75
2022/07/25 05:54:50;;;;;;;;;;;29.20;58.10;;;;;;5013501;28;20293;-76
2022/07/25 05:57:16;;;;;;;;;;;28.40;60.00;;;;;;5013585;28;20385;-76
2022/07/25 05:59:42;;;;;;;;;;;27.50;61.60;;;;;;5002518;28;19909;-75
2022/07/25 06:02:08;;;;;;;;;;;27.00;63.30;;;;;;5011478;28;19920;-75
2022/07/25 06:04:34;;;;;;;;;;;27.30;64.60;;;;;;5009732;28;19932;-76
2022/07/25 06:07:00;;;;;;;;;;;28.40;64.00;;;;;;5013449;28;19921;-80
2022/07/25 06:09:26;;;;;;;;;;;29.50;59.20;;;;;;5002688;28;19917;-75
2022/07/25 06:11:52;;;;;;;;;;;30.00;57.60;;;;;;5006383;28;19924;-75
2022/07/25 06:14:18;;;;;;;;;;;30.50;58.60;;;;;;5012116;28;19910;-77
2022/07/25 06:16:44;;;;;;;;;;;30.40;57.30;;;;;;5006299;28;19917;-75
2022/07/25 06:19:10;;;;;;;;;;;31.00;58.40;;;;;;5004618;28;19909;-80
2022/07/25 06:21:36;;;;;;;;;;;31.10;57.50;;;;;;5008831;28;20279;-75
2022/07/25 06:24:02;;;;;;;;;;;31.30;57.80;;;;;;5012091;28;19909;-75
2022/07/25 06:26:28;;;;;;;;;;;31.30;56.00;;;;;;5007740;28;19917;-75
2022/07/25 06:28:54;;;;;;;;;;;30.80;56.40;;;;;;5010922;28;19917;-74
2022/07/25 06:31:20;;;;;;;;;;;31.10;56.20;;;;;;5008215;28;19932;-72
2022/07/25 06:33:46;;;;;;;;;;;30.80;55.90;;;;;;5011017;28;20362;-72
2022/07/25 06:36:12;;;;;;;;;;;30.90;55.80;;;;;;5009784;28;19916;-72
2022/07/25 06:38:38;;;;;;;;;;;30.90;56.20;;;;;;5006363;28;20298;-72
2022/07/25 06:41:04;;;;;;;;;;;30.50;56.70;;;;;;5008676;28;19913;-73
2022/07/25 06:43:30;;;;;;;;;;;30.60;56.50;;;;;;5006760;28;19909;-72
2022/07/25 06:45:56;;;;;;;;;;;30.30;56.80;;;;;;5011340;28;19920;-72
2022/07/25 06:48:23;;;;;;;;;;;30.70;56.00;;;;;;5008988;28;20341;-73
2022/07/25 06:50:49;;;;;;;;;;;30.60;55.60;;;;;;5007810;28;20355;-73
2022/07/25 06:53:15;;;;;;;;;;;30.20;56.30;;;;;;5006402;28;20311;-73
2022/07/25 06:55:41;;;;;;;;;;;30.00;56.70;;;;;;5004703;28;19910;-73
2022/07/25 06:58:07;;;;;;;;;;;29.90;57.00;;;;;;5011766;28;19917;-72
2022/07/25 07:00:33;;;;;;;;;;;30.00;57.00;;;;;;5001856;28;19909;-72
2022/07/25 07:03:01;;;;;;;;;;;29.70;57.40;;;;;;5005910;28;19913;-73
2022/07/25 07:05:28;;;;;;;;;;;30.10;57.20;;;;;;5007054;28;19920;-73
2022/07/25 07:07:54;;;;;;;;;;;30.20;57.30;;;;;;5004218;28;20223;-73
2022/07/25 07:10:21;;;;;;;;;;;30.30;56.80;;;;;;5005513;28;19917;-73
2022/07/25 07:12:47;;;;;;;;;;;30.30;56.40;;;;;;5004759;28;19914;-72
2022/07/25 07:15:14;;;;;;;;;;;30.30;56.30;;;;;;5005660;28;19924;-73
2022/07/25 07:17:40;;;;;;;;;;;30.10;56.50;;;;;;5010184;28;19905;-73
2022/07/25 07:20:06;;;;;;;;;;;31.00;56.40;;;;;;5009854;28;20355;-72
2022/07/25 07:22:42;;;;;;;;;;;31.20;55.40;;;;;;5008758;28;19909;-73
2022/07/25 07:25:09;;;;;;;;;;;31.30;56.10;;;;;;5010162;28;19909;-72
2022/07/25 07:27:35;;;;;;;;;;;31.50;54.70;;;;;;5006627;28;19924;-72
2022/07/25 07:30:01;;;;;;;;;;;32.30;55.20;;;;;;5013809;28;20335;-73
2022/07/25 07:32:27;;;;;;;;;;;31.80;54.60;;;;;;5005896;28;19917;-73
2022/07/25 07:34:52;;;;;;;;;;;32.00;54.70;;;;;;5012582;28;19939;-73
2022/07/25 07:37:18;;;;;;;;;;;32.30;54.30;;;;;;5011113;28;19991;-73
2022/07/25 07:39:44;;;;;;;;;;;32.40;53.80;;;;;;5011477;28;19925;-73
2022/07/25 07:42:10;;;;;;;;;;;32.50;53.20;;;;;;5010037;28;19909;-73
2022/07/25 07:44:36;;;;;;;;;;;32.50;53.40;;;;;;5012050;28;20354;-73
2022/07/25 07:47:02;;;;;;;;;;;32.90;53.70;;;;;;5015094;28;19913;-73
2022/07/25 07:49:29;;;;;;;;;;;33.00;52.30;;;;;;5011512;28;19924;-74
2022/07/25 07:51:55;;;;;;;;;;;32.90;52.80;;;;;;5007622;28;19910;-72
2022/07/25 07:57:05;;;;;;;;;;;32.90;52.90;;;;;;5010761;28;19913;-73
2022/07/25 07:59:31;;;;;;;;;;;33.00;52.10;;;;;;5009782;28;19910;-72
2022/07/25 08:01:57;;;;;;;;;;;32.60;53.50;;;;;;5009787;28;20401;-72
2022/07/25 08:04:23;;;;;;;;;;;32.40;53.30;;;;;;5012978;28;19917;-72
2022/07/25 08:06:49;;;;;;;;;;;32.60;53.40;;;;;;5012450;28;19924;-72
2022/07/25 08:09:15;;;;;;;;;;;32.80;52.60;;;;;;5013463;28;20020;-72
2022/07/25 08:11:41;;;;;;;;;;;32.50;52.50;;;;;;5005989;28;19911;-72
2022/07/25 08:14:07;;;;;;;;;;;32.70;53.00;;;;;;5011263;28;19920;-72
2022/07/25 08:16:33;;;;;;;;;;;32.80;53.00;;;;;;5005651;28;19913;-72
2022/07/25 08:18:59;;;;;;;;;;;32.60;52.90;;;;;;5014005;28;19920;-72
2022/07/25 08:21:25;;;;;;;;;;;31.80;53.40;;;;;;5012886;28;20020;-72
2022/07/25 08:23:51;;;;;;;;;;;31.80;53.50;;;;;;5006655;28;19909;-72
2022/07/25 08:26:17;;;;;;;;;;;32.30;53.20;;;;;;5008070;28;20369;-71
2022/07/25 08:28:43;;;;;;;;;;;32.60;52.80;;;;;;5005276;28;19922;-72
2022/07/25 08:31:09;;;;;;;;;;;32.80;53.00;;;;;;5009536;28;20059;-77
2022/07/25 08:33:35;;;;;;;;;;;33.10;52.80;;;;;;5011104;28;19916;-72
2022/07/25 08:36:01;;;;;;;;;;;33.10;52.50;;;;;;5014385;28;20277;-72
2022/07/25 08:38:28;;;;;;;;;;;33.10;52.40;;;;;;5013644;28;19913;-72
2022/07/25 08:40:54;;;;;;;;;;;32.80;52.60;;;;;;5008324;28;20281;-73
2022/07/25 08:43:20;;;;;;;;;;;32.80;52.70;;;;;;5007760;28;19909;-72
2022/07/25 08:45:47;;;;;;;;;;;32.60;52.70;;;;;;5012277;28;20359;-72
2022/07/25 08:48:15;;;;;;;;;;;32.70;52.50;;;;;;5009250;28;20362;-73
2022/07/25 08:50:42;;;;;;;;;;;32.80;53.00;;;;;;5011440;28;19917;-72
2022/07/25 08:53:08;;;;;;;;;;;32.80;53.20;;;;;;5010244;28;20281;-72
2022/07/25 08:55:34;;;;;;;;;;;33.00;51.90;;;;;;5012390;28;19910;-72
2022/07/25 08:58:01;;;;;;;;;;;32.70;52.60;;;;;;5012552;28;20264;-72
2022/07/25 09:00:30;;;;;;;;;;;32.60;53.00;;;;;;5008063;28;19913;-73
2022/07/25 09:03:00;;;;;;;;;;;32.50;53.00;;;;;;5008483;28;20290;-72
2022/07/25 09:05:27;;;;;;;;;;;32.30;53.60;;;;;;5007667;28;19913;-72
2022/07/25 09:07:54;;;;;;;;;;;32.70;53.50;;;;;;5013807;28;19913;-72
2022/07/25 09:10:21;;;;;;;;;;;32.90;52.30;;;;;;5010428;28;19909;-72
2022/07/25 09:12:51;;;;;;;;;;;33.00;52.20;;;;;;5008368;28;19914;-73
2022/07/25 09:15:28;;;;;;;;;;;33.00;52.20;;;;;;5002521;28;19913;-73
2022/07/25 09:17:54;;;;;;;;;;;32.80;51.20;;;;;;5010903;28;19910;-73
2022/07/25 09:20:21;;;;;;;;;;;33.10;51.50;;;;;;5007113;28;19909;-72
2022/07/25 09:22:47;;;;;;;;;;;33.10;52.10;;;;;;5010769;28;20274;-72
2022/07/25 09:25:20;;;;;;;;;;;33.20;51.80;;;;;;5012930;28;20359;-73
2022/07/25 09:27:46;;;;;;;;;;;33.60;51.20;;;;;;5009988;28;19913;-72
2022/07/25 09:30:13;;;;;;;;;;;34.00;49.70;;;;;;5010697;28;20388;-73
2022/07/25 09:32:39;;;;;;;;;;;33.70;50.70;;;;;;5005544;28;20292;-76
2022/07/25 09:35:05;;;;;;;;;;;34.20;50.60;;;;;;5009702;28;19910;-74
2022/07/25 09:37:31;;;;;;;;;;;34.40;50.00;;;;;;5005483;28;19909;-72
2022/07/25 09:39:57;;;;;;;;;;;33.60;51.00;;;;;;5007665;28;19916;-72
2022/07/25 09:42:24;;;;;;;;;;;34.10;50.50;;;;;;5009804;28;19909;-72
2022/07/25 09:44:57;;;;;;;;;;;34.00;50.10;;;;;;5007961;28;19921;-73
2022/07/25 09:47:23;;;;;;;;;;;34.10;50.00;;;;;;5012396;28;19913;-72
2022/07/25 09:49:51;;;;;;;;;;;34.30;49.50;;;;;;5005721;28;20362;-72
2022/07/25 09:52:17;;;;;;;;;;;33.80;51.00;;;;;;5006389;28;19917;-72
2022/07/25 09:54:43;;;;;;;;;;;34.30;49.80;;;;;;5010944;28;19916;-73
2022/07/25 09:57:10;;;;;;;;;;;34.20;49.70;;;;;;5010254;28;19918;-72
2022/07/25 09:59:36;;;;;;;;;;;34.60;48.60;;;;;;5010543;28;19909;-72
2022/07/25 10:02:07;;;;;;;;;;;34.70;47.80;;;;;;5008683;28;19913;-72
2022/07/25 10:04:36;;;;;;;;;;;33.80;48.60;;;;;;5009320;28;20229;-72
2022/07/25 10:07:06;;;;;;;;;;;34.30;48.70;;;;;;5010717;28;19909;-75
2022/07/25 10:09:32;;;;;;;;;;;34.70;47.80;;;;;;5005043;28;19920;-72
2022/07/25 10:12:05;;;;;;;;;;;34.80;48.30;;;;;;5007709;28;19981;-74
2022/07/25 10:14:32;;;;;;;;;;;34.00;49.50;;;;;;5004902;28;19916;-73
2022/07/25 10:17:00;;;;;;;;;;;34.50;47.90;;;;;;5011751;28;19910;-73
2022/07/25 10:19:38;;;;;;;;;;;34.00;48.40;;;;;;5011104;28;19985;-72
2022/07/25 10:22:04;;;;;;;;;;;33.80;48.40;;;;;;5000910;28;20370;-73
2022/07/25 10:24:34;;;;;;;;;;;33.50;48.50;;;;;;5010135;28;19916;-72
2022/07/25 10:27:06;;;;;;;;;;;33.40;48.40;;;;;;5009467;28;19909;-72
2022/07/25 10:29:33;;;;;;;;;;;33.30;49.40;;;;;;5012082;28;19924;-73
2022/07/25 10:32:10;;;;;;;;;;;33.40;48.80;;;;;;5008865;28;19922;-73
2022/07/25 10:34:36;;;;;;;;;;;33.30;49.00;;;;;;5010836;28;19933;-75
2022/07/25 10:37:10;;;;;;;;;;;33.60;48.70;;;;;;5002828;28;20305;-73
2022/07/25 10:39:37;;;;;;;;;;;33.80;48.00;;;;;;5003650;28;20294;-73
2022/07/25 10:42:03;;;;;;;;;;;34.00;49.40;;;;;;4990355;28;20370;-74
2022/07/25 10:44:42;;;;;;;;;;;34.00;46.90;;;;;;5007374;28;20429;-72
2022/07/25 10:47:10;;;;;;;;;;;34.10;48.20;;;;;;5002641;28;19913;-72
2022/07/25 10:49:48;;;;;;;;;;;34.20;47.80;;;;;;5007531;28;19920;-72
2022/07/25 10:52:16;;;;;;;;;;;34.00;48.20;;;;;;5009972;28;19973;-76
2022/07/25 10:54:51;;;;;;;;;;;34.00;48.20;;;;;;5011478;28;19917;-72
2022/07/25 10:57:17;;;;;;;;;;;34.20;48.30;;;;;;5009672;28;19913;-72
2022/07/25 10:59:43;;;;;;;;;;;34.20;48.50;;;;;;5002627;28;19924;-71
2022/07/25 11:02:15;;;;;;;;;;;33.90;49.20;;;;;;5005553;28;20359;-72
2022/07/25 11:04:42;;;;;;;;;;;34.00;49.00;;;;;;5008260;28;20377;-72
2022/07/25 11:07:10;;;;;;;;;;;34.30;49.10;;;;;;5007511;28;19916;-72
2022/07/25 11:09:36;;;;;;;;;;;34.30;48.70;;;;;;5010600;28;19913;-72
2022/07/25 11:12:03;;;;;;;;;;;34.50;49.20;;;;;;5004927;28;19923;-72
2022/07/25 11:14:31;;;;;;;;;;;34.30;48.40;;;;;;5004743;28;19909;-72
2022/07/25 11:17:11;;;;;;;;;;;34.10;48.90;;;;;;5001699;28;20001;-72
2022/07/25 11:19:37;;;;;;;;;;;34.10;48.20;;;;;;5004622;28;19909;-72
2022/07/25 11:22:07;;;;;;;;;;;34.50;47.90;;;;;;5007809;28;20270;-72
2022/07/25 11:24:34;;;;;;;;;;;34.50;47.70;;;;;;5009995;28;19909;-72
2022/07/25 11:27:01;;;;;;;;;;;34.40;47.90;;;;;;5006773;28;19920;-73
2022/07/25 11:29:27;;;;;;;;;;;34.60;47.00;;;;;;5006669;28;19924;-73
2022/07/25 11:31:57;;;;;;;;;;;34.50;48.00;;;;;;5007317;28;20015;-73
2022/07/25 11:34:28;;;;;;;;;;;34.80;47.70;;;;;;5008919;28;19909;-72
2022/07/25 11:36:56;;;;;;;;;;;34.60;48.10;;;;;;5009084;28;19913;-72
2022/07/25 11:39:23;;;;;;;;;;;34.50;47.80;;;;;;5004540;28;19910;-73
2022/07/25 11:42:01;;;;;;;;;;;34.60;48.10;;;;;;5007126;28;19909;-72
2022/07/25 11:44:37;;;;;;;;;;;34.70;48.00;;;;;;5004850;28;19913;-72
2022/07/25 11:47:04;;;;;;;;;;;34.50;48.20;;;;;;5005500;28;19916;-72
2022/07/25 11:49:30;;;;;;;;;;;34.50;48.40;;;;;;5008121;28;19913;-73
2022/07/25 11:51:56;;;;;;;;;;;34.80;48.30;;;;;;5003067;28;20359;-73
2022/07/25 11:54:23;;;;;;;;;;;35.30;47.80;;;;;;5003686;28;20290;-73
2022/07/25 11:56:49;;;;;;;;;;;35.40;47.50;;;;;;5005216;28;20228;-72
2022/07/25 11:59:15;;;;;;;;;;;35.30;47.00;;;;;;5006334;28;19909;-73
2022/07/25 12:01:42;;;;;;;;;;;34.90;47.90;;;;;;5006949;28;19917;-73
2022/07/25 12:04:08;;;;;;;;;;;35.00;47.40;;;;;;5006100;28;20275;-73
2022/07/25 12:06:34;;;;;;;;;;;35.10;47.90;;;;;;5007245;28;20286;-73
2022/07/25 12:09:29;;;;;;;;;;;35.40;47.80;;;;;;5008899;28;19913;-73
2022/07/25 12:12:01;;;;;;;;;;;35.50;46.70;;;;;;4996530;28;20346;-74
2022/07/25 12:14:27;;;;;;;;;;;35.70;47.10;;;;;;5008866;28;19917;-73
2022/07/25 12:16:53;;;;;;;;;;;35.70;47.30;;;;;;5012996;28;20354;-73
2022/07/25 12:19:20;;;;;;;;;;;35.90;47.00;;;;;;5012595;28;19916;-73
2022/07/25 12:21:46;;;;;;;;;;;35.80;46.90;;;;;;5008998;28;19916;-73
2022/07/25 12:24:13;;;;;;;;;;;35.90;47.40;;;;;;5006947;28;19916;-79
2022/07/25 12:26:39;;;;;;;;;;;35.80;47.00;;;;;;5011704;28;19909;-73
2022/07/25 12:29:05;;;;;;;;;;;35.50;46.80;;;;;;5012858;28;19924;-72
2022/07/25 12:31:31;;;;;;;;;;;35.40;46.70;;;;;;5005538;28;19921;-72
2022/07/25 12:33:58;;;;;;;;;;;35.50;46.00;;;;;;5013904;28;19920;-72
2022/07/25 12:36:24;;;;;;;;;;;35.60;46.70;;;;;;5010737;28;19913;-75
2022/07/25 12:38:50;;;;;;;;;;;35.90;46.70;;;;;;5012036;28;19915;-73
2022/07/25 12:41:21;;;;;;;;;;;35.80;47.20;;;;;;5012319;28;19910;-73
2022/07/25 12:43:47;;;;;;;;;;;35.50;46.60;;;;;;5011296;28;19909;-72
2022/07/25 12:46:13;;;;;;;;;;;35.10;46.70;;;;;;5013845;28;19920;-77
2022/07/25 12:48:39;;;;;;;;;;;34.90;47.10;;;;;;5008197;28;19910;-72
2022/07/25 12:51:05;;;;;;;;;;;34.80;47.10;;;;;;5004061;28;19914;-73
2022/07/25 12:53:31;;;;;;;;;;;35.10;47.00;;;;;;5007807;28;19916;-73
2022/07/25 12:55:57;;;;;;;;;;;35.20;44.30;;;;;;5012445;28;19909;-73
2022/07/25 12:58:23;;;;;;;;;;;35.30;43.90;;;;;;5007180;28;20389;-75
2022/07/25 13:00:50;;;;;;;;;;;35.60;43.20;;;;;;5007356;28;19992;-72
2022/07/25 13:03:16;;;;;;;;;;;35.40;43.80;;;;;;5011597;28;19913;-74
2022/07/25 13:05:42;;;;;;;;;;;35.30;43.70;;;;;;5008565;28;19910;-73
2022/07/25 13:08:08;;;;;;;;;;;34.90;43.50;;;;;;5010430;28;19916;-73
2022/07/25 13:10:35;;;;;;;;;;;34.70;43.40;;;;;;5004375;28;19913;-73
2022/07/25 13:13:01;;;;;;;;;;;34.40;43.50;;;;;;5011505;28;19913;-73
2022/07/25 13:15:29;;;;;;;;;;;33.90;44.30;;;;;;5009412;28;19909;-73
2022/07/25 13:17:56;;;;;;;;;;;33.90;45.10;;;;;;5009674;28;19965;-77
2022/07/25 13:20:22;;;;;;;;;;;34.20;43.70;;;;;;5010061;28;19931;-74
2022/07/25 13:22:48;;;;;;;;;;;34.30;43.90;;;;;;5010472;28;19914;-73
2022/07/25 13:25:14;;;;;;;;;;;34.00;44.20;;;;;;5007009;28;19916;-79
2022/07/25 13:27:40;;;;;;;;;;;33.50;44.20;;;;;;5010698;28;19916;-72
2022/07/25 13:30:06;;;;;;;;;;;33.40;45.00;;;;;;5012100;28;19917;-72
2022/07/25 13:32:32;;;;;;;;;;;33.50;45.00;;;;;;5006820;28;19913;-72
2022/07/25 13:34:58;;;;;;;;;;;33.70;45.00;;;;;;5012189;28;20251;-73
2022/07/25 13:37:25;;;;;;;;;;;33.70;45.50;;;;;;5007071;28;19932;-73
2022/07/25 13:39:51;;;;;;;;;;;33.80;46.10;;;;;;5007830;28;19909;-73
2022/07/25 13:42:17;;;;;;;;;;;33.80;45.50;;;;;;5005841;28;20001;-72
2022/07/25 13:44:43;;;;;;;;;;;33.70;45.10;;;;;;5008156;28;19942;-72
2022/07/25 13:47:09;;;;;;;;;;;33.60;45.30;;;;;;5011660;28;19913;-74
2022/07/25 13:49:35;;;;;;;;;;;33.70;45.50;;;;;;5003051;28;20310;-72
2022/07/25 13:52:01;;;;;;;;;;;33.40;45.80;;;;;;5007088;28;19921;-74
2022/07/25 13:54:27;;;;;;;;;;;33.10;45.90;;;;;;5012032;28;19916;-73
2022/07/25 13:56:53;;;;;;;;;;;33.00;46.20;;;;;;5011211;28;19936;-74
2022/07/25 13:59:19;;;;;;;;;;;32.90;46.70;;;;;;5007067;28;19910;-74
2022/07/25 14:01:46;;;;;;;;;;;32.90;47.40;;;;;;5005833;28;19913;-74
2022/07/25 14:04:12;;;;;;;;;;;32.60;46.50;;;;;;5012390;28;20258;-73
2022/07/25 14:06:38;;;;;;;;;;;32.50;47.20;;;;;;5004975;28;19914;-73
2022/07/25 14:09:04;;;;;;;;;;;32.50;47.80;;;;;;5004427;28;19909;-73
2022/07/25 14:11:30;;;;;;;;;;;32.50;47.30;;;;;;5009099;28;19956;-73
2022/07/25 14:13:56;;;;;;;;;;;32.40;47.40;;;;;;5012651;28;19920;-73
2022/07/25 14:16:22;;;;;;;;;;;32.50;47.20;;;;;;5008068;28;19910;-73